Time;durP1;ratioP1;P1;durP2;ratioP2;P2;SDS_P1;SDS_P2;PMS_P1;PMS_P2;Temp;Humidity;BMP_temperature;BMP_pressure;BME280_temperature;BME280_humidity;BME280_pressure;Samples;Min_cycle;Max_cycle;Signal;HPM_P1;HPM_P2
2022/05/31 00:08:26;;;;;;;10.07;5.35;;;;;;;19.19;71.43;100084.41;31304718;28;20053;-74
2022/05/31 00:23:28;;;;;;;7.90;4.43;;;;;;;19.05;72.55;100085.19;31342701;28;20045;-73
2022/05/31 00:38:30;;;;;;;10.15;4.95;;;;;;;18.94;73.51;100079.50;31343145;28;20502;-74
2022/05/31 00:53:40;;;;;;;8.75;4.72;;;;;;;18.89;74.41;100074.69;31353994;28;20068;-74
2022/05/31 01:08:45;;;;;;;6.70;4.70;;;;;;;18.81;73.50;100070.81;31328777;28;20064;-73
2022/05/31 01:24:09;;;;;;;11.13;4.50;;;;;;;18.74;74.00;100078.22;31358218;28;20128;-73
2022/05/31 01:39:22;;;;;;;9.13;5.13;;;;;;;18.62;74.83;100081.25;31349729;28;20053;-74
2022/05/31 01:54:25;;;;;;;8.57;4.77;;;;;;;18.57;74.02;100074.41;31336439;28;20061;-74
2022/05/31 02:09:28;;;;;;;10.23;4.30;;;;;;;18.61;74.05;100080.50;31313780;28;20049;-73
2022/05/31 02:24:30;;;;;;;6.03;4.60;;;;;;;18.64;74.16;100090.53;31337203;28;20045;-73
2022/05/31 02:39:32;;;;;;;13.32;4.68;;;;;;;18.43;75.69;100086.13;31370103;28;20403;-73
2022/05/31 02:54:34;;;;;;;6.70;4.20;;;;;;;18.62;75.53;100095.75;31359633;28;20148;-74
2022/05/31 03:09:36;;;;;;;6.85;4.80;;;;;;;19.03;74.77;100071.16;31333983;28;20148;-73
2022/05/31 03:24:46;;;;;;;9.40;5.82;;;;;;;19.46;74.81;100075.03;31358570;28;20490;-74
2022/05/31 03:39:48;;;;;;;12.73;6.25;;;;;;;19.39;75.44;100069.94;31361179;28;20398;-74
2022/05/31 03:54:50;;;;;;;14.48;5.90;;;;;;;19.71;75.49;100062.63;31351708;28;20150;-74
2022/05/31 04:09:52;;;;;;;9.13;6.05;;;;;;;20.18;75.46;100066.16;31355572;28;20046;-74
2022/05/31 04:24:57;;;;;;;13.55;7.00;;;;;;;20.75;74.27;100075.28;31326138;28;20049;-74
2022/05/31 04:39:59;;;;;;;14.18;8.13;;;;;;;21.52;73.03;100059.00;31368984;28;20053;-75
2022/05/31 04:55:01;;;;;;;19.17;8.27;;;;;;;22.25;70.25;100051.75;31364300;28;20495;-75
2022/05/31 05:10:07;;;;;;;18.75;9.43;;;;;;;23.14;67.81;100054.56;31324400;28;20088;-74
2022/05/31 05:25:10;;;;;;;20.63;9.23;;;;;;;23.81;65.40;100082.09;31341810;28;20055;-75
2022/05/31 05:40:12;;;;;;;18.25;7.35;;;;;;;24.50;64.06;100082.00;31341913;28;20063;-75
2022/05/31 05:55:14;;;;;;;28.43;12.90;;;;;;;25.51;61.97;100062.41;31342874;28;20049;-75
2022/05/31 06:10:37;;;;;;;14.70;6.57;;;;;;;25.11;61.43;100064.09;31338013;28;20753;-75
2022/05/31 06:25:39;;;;;;;19.38;8.27;;;;;;;25.02;62.63;100062.44;31335530;28;20049;-76
2022/05/31 06:40:45;;;;;;;15.80;8.17;;;;;;;25.85;60.43;100068.34;31360099;28;20057;-77
2022/05/31 07:11:07;;;;;;;16.08;7.80;;;;;;;27.89;54.95;100063.19;31345032;28;20064;-76
2022/05/31 07:26:12;;;;;;;19.83;9.95;;;;;;;27.62;56.23;100051.34;31328250;28;20521;-77
2022/05/31 07:41:34;;;;;;;15.68;8.60;;;;;;;27.47;56.67;100063.75;31328632;28;20095;-76
2022/05/31 07:56:36;;;;;;;12.55;7.05;;;;;;;28.72;54.21;100074.50;31343133;28;20057;-77
2022/05/31 08:11:38;;;;;;;14.73;6.80;;;;;;;29.29;51.85;100080.91;31322431;28;20067;-76
2022/05/31 08:26:40;;;;;;;9.15;5.55;;;;;;;29.88;50.33;100067.09;31317095;28;20045;-77
2022/05/31 08:41:46;;;;;;;10.77;4.55;;;;;;;30.80;46.72;100066.00;31331994;28;20048;-77
2022/05/31 08:56:57;;;;;;;7.30;4.38;;;;;;;31.22;45.01;100068.44;31340688;28;20049;-77
2022/05/31 09:12:09;;;;;;;4.55;3.58;;;;;;;31.15;44.43;100052.38;31334420;28;20079;-76
2022/05/31 09:27:24;;;;;;;10.02;3.85;;;;;;;31.94;41.98;100050.25;31315485;28;20059;-75
2022/05/31 09:42:55;;;;;;;6.43;3.45;;;;;;;31.97;40.93;100066.72;31343037;28;20053;-75
2022/05/31 09:58:10;;;;;;;6.72;3.80;;;;;;;32.24;41.39;100063.41;31328859;28;20506;-76
2022/05/31 10:13:13;;;;;;;6.00;3.80;;;;;;;32.14;43.29;100055.56;31325881;28;20060;-75
2022/05/31 10:28:50;;;;;;;6.63;3.60;;;;;;;32.01;42.32;100055.09;31326616;28;20539;-77
2022/05/31 10:44:01;;;;;;;3.88;2.70;;;;;;;32.53;39.99;100053.28;31330930;28;20052;-75
2022/05/31 10:59:16;;;;;;;6.65;2.83;;;;;;;33.72;37.61;100048.41;31282439;28;20145;-76
2022/05/31 11:14:28;;;;;;;3.92;2.25;;;;;;;33.35;35.16;100039.06;31210403;28;20049;-75
2022/05/31 11:29:33;;;;;;;5.18;2.55;;;;;;;31.94;35.66;100030.59;31180271;28;20055;-76
2022/05/31 11:44:47;;;;;;;13.45;2.90;;;;;;;31.53;37.06;100033.38;31204641;28;20041;-77
2022/05/31 11:59:56;;;;;;;8.20;2.33;;;;;;;30.72;38.30;100040.03;31313333;28;20056;-76
2022/05/31 12:15:23;;;;;;;4.90;2.47;;;;;;;30.26;38.95;100016.09;31335649;28;20045;-75
2022/05/31 12:30:31;;;;;;;5.68;2.60;;;;;;;30.01;40.09;99991.41;31350173;28;20425;-77
2022/05/31 12:45:33;;;;;;;4.35;2.60;;;;;;;29.99;40.36;99949.25;31327918;28;20068;-71
2022/05/31 13:00:35;;;;;;;7.40;2.70;;;;;;;30.13;39.57;99925.38;31314317;28;20143;-75
2022/05/31 13:31:18;;;;;;;4.60;2.40;;;;;;;29.91;37.76;99914.91;31311268;28;20091;-75
2022/05/31 13:46:28;;;;;;;9.60;2.53;;;;;;;29.72;37.95;99937.63;31319535;28;20048;-74
2022/05/31 14:01:38;;;;;;;4.83;2.03;;;;;;;29.76;38.58;99926.06;31317846;28;20080;-75
2022/05/31 14:16:42;;;;;;;7.68;3.45;;;;;;;29.48;38.98;99896.91;31356517;28;20057;-77
2022/05/31 14:31:48;;;;;;;9.93;3.17;;;;;;;29.29;38.95;99924.38;31349852;28;20052;-75
2022/05/31 14:47:05;;;;;;;8.88;2.90;;;;;;;29.29;39.28;99929.97;31354520;28;20045;-76
2022/05/31 15:02:27;;;;;;;10.48;2.42;;;;;;;29.10;39.87;99949.06;31344478;28;20156;-77
2022/05/31 15:32:53;;;;;;;6.78;2.40;;;;;;;28.47;41.51;99981.97;31346620;28;20045;-81
2022/05/31 15:47:55;;;;;;;8.55;3.17;;;;;;;28.23;41.56;99985.09;31370564;28;20080;-72
2022/05/31 16:03:03;;;;;;;9.32;2.75;;;;;;;27.92;42.18;99989.59;31314261;28;20494;-81
2022/05/31 16:18:05;;;;;;;7.05;2.80;;;;;;;27.63;43.12;99985.94;31327988;28;20072;-76
2022/05/31 16:33:07;;;;;;;9.32;2.78;;;;;;;27.36;43.07;100011.03;31320180;28;20049;-76
2022/05/31 16:48:09;;;;;;;12.25;5.43;;;;;;;26.91;44.89;100024.28;31313101;28;20519;-77
2022/05/31 17:03:11;;;;;;;12.45;4.35;;;;;;;26.43;46.08;100053.91;31312969;28;20059;-78
2022/05/31 17:18:13;;;;;;;10.00;5.07;;;;;;;25.85;50.97;100068.34;31285184;28;20479;-78
2022/05/31 17:33:24;;;;;;;11.65;5.20;;;;;;;25.38;54.32;100065.84;31291025;28;20049;-78
2022/05/31 17:48:26;;;;;;;10.50;4.75;;;;;;;25.01;56.27;100065.72;31266750;28;20053;-80
2022/05/31 18:03:28;;;;;;;12.80;4.95;;;;;;;24.67;57.90;100079.84;31352424;28;20066;-78
2022/05/31 18:18:30;;;;;;;12.18;5.63;;;;;;;24.31;59.85;100100.53;31366986;28;20414;-78
2022/05/31 18:33:32;;;;;;;;;;;;;;;23.91;66.26;100097.16;31342596;28;20057;-78
2022/05/31 18:48:34;;;;;;;10.75;4.00;;;;;;;23.46;66.18;100102.81;31327495;28;19921;-77
2022/05/31 19:03:40;;;;;;;8.90;4.27;;;;;;;23.08;68.84;100089.81;31312382;28;20053;-76
2022/05/31 19:18:45;;;;;;;7.70;4.00;;;;;;;22.77;70.71;100074.97;31333063;28;20040;-79
2022/05/31 19:33:53;;;;;;;50.22;26.90;;;;;;;22.47;73.40;100062.84;31346531;28;20045;-76
2022/05/31 19:48:56;;;;;;;10.82;4.38;;;;;;;22.17;73.83;100065.31;31363105;28;20045;-78
2022/05/31 20:03:59;;;;;;;10.57;4.60;;;;;;;22.22;72.98;100061.03;31329317;28;20071;-76
2022/05/31 20:19:32;;;;;;;7.60;3.93;;;;;;;21.95;74.96;100068.75;31350026;28;20175;-77
2022/05/31 20:34:23;;;;;;;5.55;4.35;;;;;;;21.91;74.26;100076.50;31332530;28;20056;-77
2022/05/31 20:49:26;;;;;;;11.33;4.93;;;;;;;21.52;76.81;100083.84;31317449;28;20061;-78
2022/05/31 21:04:28;;;;;;;8.27;4.15;;;;;;;21.16;80.03;100124.78;31352470;28;20173;-78
2022/05/31 21:19:31;;;;;;;9.70;4.80;;;;;;;20.80;81.63;100133.72;31351803;28;20127;-81
2022/05/31 21:34:34;;;;;;;;;;;;;;;20.47;86.11;100112.88;31317118;28;20049;-80
2022/05/31 21:49:36;;;;;;;7.55;4.20;;;;;;;20.48;82.83;100130.94;31314803;28;19924;-80
2022/05/31 22:04:37;;;;;;;8.60;3.95;;;;;;;20.39;83.79;100139.34;31319377;28;20562;-79
2022/05/31 22:19:39;;;;;;;12.40;3.38;;;;;;;20.28;85.74;100172.28;31319865;28;20059;-80
2022/05/31 22:34:42;;;;;;;7.20;4.25;;;;;;;20.07;89.31;100177.81;31307037;28;20051;-79
2022/05/31 22:49:44;;;;;;;64.57;31.50;;;;;;;19.98;92.23;100196.44;31324610;28;20399;-80
2022/05/31 23:04:46;;;;;;;12.50;4.20;;;;;;;19.84;92.27;100189.72;31322348;28;20045;-79
2022/05/31 23:19:48;;;;;;;9.77;4.90;;;;;;;19.67;94.22;100188.75;31347319;28;20057;-79
2022/05/31 23:35:02;;;;;;;8.25;4.68;;;;;;;19.53;96.89;100192.31;31355036;28;20474;-79
2022/05/31 23:50:04;;;;;;;10.53;4.67;;;;;;;19.51;95.64;100192.78;31347748;28;20053;-79
